createdAt,value
2018-07-09T00:00:44.540Z,41.80
2018-07-09T00:03:13.665Z,41.70
2018-07-09T00:05:42.833Z,41.60
2018-07-09T00:08:11.976Z,41.80
2018-07-09T00:10:55.351Z,41.90
2018-07-09T00:13:24.044Z,42.00
2018-07-09T00:15:52.316Z,41.90
2018-07-09T00:18:20.407Z,42.40
2018-07-09T00:23:17.361Z,42.20
2018-07-09T00:28:14.503Z,42.00
2018-07-09T00:30:42.621Z,42.50
2018-07-09T00:33:10.707Z,42.10
2018-07-09T00:35:38.811Z,42.20
2018-07-09T00:38:06.916Z,42.20
2018-07-09T00:40:35.014Z,42.10
2018-07-09T00:43:03.561Z,42.20
2018-07-09T00:50:27.412Z,42.30
2018-07-09T00:52:56.041Z,42.20
2018-07-09T00:55:24.133Z,42.30
2018-07-09T00:57:52.372Z,42.40
2018-07-09T01:00:20.588Z,42.30
2018-07-09T01:02:48.676Z,42.50
2018-07-09T01:05:16.754Z,42.40
2018-07-09T01:07:44.868Z,42.30
2018-07-09T01:10:14.149Z,42.50
2018-07-09T01:12:42.251Z,42.50
2018-07-09T01:15:10.356Z,42.40
2018-07-09T01:17:38.460Z,42.40
2018-07-09T01:20:06.568Z,42.60
2018-07-09T01:22:34.675Z,42.40
2018-07-09T01:25:02.850Z,42.40
2018-07-09T01:27:31.075Z,42.20
2018-07-09T01:30:12.133Z,42.30
2018-07-09T01:32:40.672Z,42.20
2018-07-09T01:35:09.872Z,42.50
2018-07-09T01:37:38.377Z,42.50
2018-07-09T01:40:06.479Z,42.50
2018-07-09T01:42:34.675Z,42.40
2018-07-09T01:45:02.799Z,42.30
2018-07-09T01:47:31.133Z,42.30
2018-07-09T01:49:59.281Z,42.20
2018-07-09T01:52:27.764Z,42.30
2018-07-09T01:54:55.844Z,42.30
2018-07-09T01:57:24.976Z,42.20
2018-07-09T01:59:53.851Z,42.50
2018-07-09T02:02:22.005Z,42.40
2018-07-09T02:04:50.132Z,42.40
2018-07-09T02:07:18.235Z,42.40
2018-07-09T02:09:46.581Z,42.60
2018-07-09T02:14:42.621Z,42.70
2018-07-09T02:17:10.754Z,42.60
2018-07-09T02:19:38.876Z,42.50
2018-07-09T02:24:34.864Z,42.20
2018-07-09T02:27:02.968Z,42.50
2018-07-09T02:29:31.083Z,42.60
2018-07-09T02:31:59.183Z,42.40
2018-07-09T02:34:27.291Z,42.30
2018-07-09T02:39:23.943Z,42.60
2018-07-09T02:41:52.057Z,42.50
2018-07-09T02:44:20.164Z,42.40
2018-07-09T02:46:48.281Z,42.50
2018-07-09T02:51:44.243Z,42.60
2018-07-09T02:54:12.366Z,42.40
2018-07-09T02:56:40.463Z,42.20
2018-07-09T02:59:08.561Z,42.40
2018-07-09T03:01:36.664Z,42.40
2018-07-09T03:04:04.743Z,42.20
2018-07-09T03:06:32.831Z,43.10
2018-07-09T03:09:00.951Z,42.30
2018-07-09T03:11:29.064Z,42.30
2018-07-09T03:13:57.167Z,42.30
2018-07-09T03:16:25.265Z,42.40
2018-07-09T03:18:53.375Z,42.20
2018-07-09T03:21:21.480Z,42.20
2018-07-09T03:26:17.641Z,42.30
2018-07-09T03:28:45.765Z,42.30
2018-07-09T03:31:13.883Z,42.20
2018-07-09T03:33:42.007Z,42.80
2018-07-09T03:36:10.111Z,42.30
2018-07-09T03:43:33.979Z,42.10
2018-07-09T03:46:02.079Z,42.00
2018-07-09T03:48:30.174Z,41.80
2018-07-09T03:50:58.307Z,42.00
2018-07-09T03:53:26.424Z,41.90
2018-07-09T04:00:50.518Z,41.90
2018-07-09T04:03:18.625Z,42.20
2018-07-09T04:05:46.723Z,41.80
2018-07-09T04:08:14.829Z,41.80
2018-07-09T04:15:38.694Z,41.90
2018-07-09T04:18:06.791Z,42.00
2018-07-09T04:20:34.892Z,42.00
2018-07-09T04:23:03.010Z,41.90
2018-07-09T04:25:31.141Z,41.80
2018-07-09T04:32:54.992Z,41.80
2018-07-09T04:35:23.120Z,41.60
2018-07-09T04:37:51.268Z,41.50
2018-07-09T04:40:19.340Z,41.60
2018-07-09T04:42:47.439Z,41.80
2018-07-09T04:45:15.578Z,41.80
2018-07-09T04:47:43.684Z,41.60
2018-07-09T04:52:39.683Z,42.00
2018-07-09T04:55:07.896Z,41.60
2018-07-09T04:57:36.024Z,41.80
2018-07-09T05:00:04.407Z,41.80
2018-07-09T05:02:32.506Z,41.80
2018-07-09T05:05:00.600Z,41.70
2018-07-09T05:07:29.593Z,41.70
2018-07-09T05:12:25.545Z,41.70
2018-07-09T05:17:21.551Z,41.70
2018-07-09T05:19:49.648Z,41.70
2018-07-09T05:22:17.719Z,41.50
2018-07-09T05:24:45.804Z,41.50
2018-07-09T05:27:13.896Z,42.00
2018-07-09T05:29:42.012Z,41.40
2018-07-09T05:32:10.094Z,41.50
2018-07-09T05:37:06.062Z,42.20
2018-07-09T05:39:34.156Z,41.40
2018-07-09T05:42:02.259Z,41.50
2018-07-09T05:44:30.538Z,41.60
2018-07-09T05:46:58.950Z,41.60
2018-07-09T05:49:27.026Z,41.70
2018-07-09T05:54:23.233Z,41.70
2018-07-09T05:56:51.336Z,42.30
2018-07-09T05:59:19.456Z,41.60
2018-07-09T06:01:47.543Z,41.60
2018-07-09T06:04:15.644Z,41.70
2018-07-09T06:06:43.758Z,41.50
2018-07-09T06:09:11.848Z,41.60
2018-07-09T06:11:39.961Z,41.50
2018-07-09T06:14:08.077Z,41.40
2018-07-09T06:16:36.280Z,41.30
2018-07-09T06:19:04.405Z,41.50
2018-07-09T06:21:32.506Z,41.50
2018-07-09T06:24:01.040Z,41.40
2018-07-09T06:26:29.195Z,41.40
2018-07-09T06:28:57.302Z,42.10
2018-07-09T06:31:25.443Z,41.30
2018-07-09T06:33:53.499Z,41.30
2018-07-09T06:36:21.607Z,41.40
2018-07-09T06:46:13.544Z,41.60
2018-07-09T06:48:41.859Z,41.50
2018-07-09T06:51:09.998Z,41.60
2018-07-09T06:53:38.127Z,41.60
2018-07-09T06:58:34.095Z,41.40
2018-07-09T07:01:02.240Z,41.40
2018-07-09T07:05:58.252Z,41.30
2018-07-09T07:08:26.353Z,41.10
2018-07-09T07:10:54.603Z,40.90
2018-07-09T07:13:22.679Z,41.00
2018-07-09T07:15:50.776Z,40.90
2018-07-09T07:18:18.851Z,40.40
2018-07-09T07:23:15.039Z,40.90
2018-07-09T07:25:43.132Z,40.80
2018-07-09T07:28:11.222Z,40.90
2018-07-09T07:30:39.308Z,40.80
2018-07-09T07:33:07.455Z,40.70
2018-07-09T07:35:35.616Z,40.50
2018-07-09T07:38:03.745Z,40.30
2018-07-09T07:40:31.832Z,40.20
2018-07-09T07:42:59.919Z,40.50
2018-07-09T07:45:27.996Z,40.40
2018-07-09T07:47:56.080Z,40.30
2018-07-09T07:50:24.251Z,40.40
2018-07-09T07:55:20.211Z,40.60
2018-07-09T07:57:48.386Z,40.70
2018-07-09T08:00:16.511Z,40.70
2018-07-09T08:02:45.045Z,40.70
2018-07-09T08:05:13.145Z,40.80
2018-07-09T08:07:41.281Z,41.00
2018-07-09T08:10:09.372Z,40.70
2018-07-09T08:15:05.595Z,40.20
2018-07-09T08:17:33.735Z,40.10
2018-07-09T08:22:52.584Z,40.10
2018-07-09T08:25:20.580Z,40.10
2018-07-09T08:27:48.672Z,40.30
2018-07-09T08:30:16.793Z,40.30
2018-07-09T08:32:44.881Z,40.40
2018-07-09T08:35:12.946Z,40.40
2018-07-09T08:37:41.051Z,40.40
2018-07-09T08:40:09.127Z,40.50
2018-07-09T08:42:37.263Z,40.30
2018-07-09T08:45:05.399Z,40.20
2018-07-09T08:47:33.542Z,40.10
2018-07-09T08:50:01.647Z,40.10
2018-07-09T08:52:29.776Z,39.90
2018-07-09T08:54:57.863Z,39.90
2018-07-09T08:57:25.968Z,40.00
2018-07-09T08:59:54.064Z,40.10
2018-07-09T09:02:22.190Z,39.80
2018-07-09T09:04:50.263Z,40.20
2018-07-09T09:07:18.383Z,40.30
2018-07-09T09:09:46.464Z,40.20
2018-07-09T09:12:14.553Z,40.10
2018-07-09T09:14:42.646Z,40.40
2018-07-09T09:17:10.747Z,39.90
2018-07-09T09:19:38.878Z,40.10
2018-07-09T09:22:06.983Z,40.10
2018-07-09T09:24:35.067Z,40.20
2018-07-09T09:27:03.192Z,40.40
2018-07-09T09:29:31.286Z,40.10
2018-07-09T09:31:59.400Z,40.00
2018-07-09T09:34:27.499Z,39.60
2018-07-09T09:36:55.828Z,39.50
2018-07-09T09:39:23.913Z,39.40
2018-07-09T09:44:19.896Z,38.60
2018-07-09T09:46:47.988Z,37.90
2018-07-09T09:49:16.090Z,37.20
2018-07-09T09:51:44.192Z,37.40
2018-07-09T09:54:12.275Z,37.60
2018-07-09T09:56:40.376Z,38.10
2018-07-09T09:59:08.497Z,38.40
2018-07-09T10:04:04.499Z,38.50
2018-07-09T10:06:32.614Z,38.00
2018-07-09T10:09:00.708Z,37.80
2018-07-09T10:11:28.830Z,38.10
2018-07-09T10:13:56.943Z,38.50
2018-07-09T10:16:25.055Z,39.00
2018-07-09T10:18:53.204Z,39.60
2018-07-09T10:21:21.318Z,39.80
2018-07-09T10:23:49.448Z,40.10
2018-07-09T10:26:17.567Z,40.60
2018-07-09T10:28:45.697Z,41.10
2018-07-09T10:31:13.807Z,40.80
2018-07-09T10:33:41.954Z,40.50
2018-07-09T10:36:10.053Z,40.00
2018-07-09T10:38:38.188Z,39.80
2018-07-09T10:41:06.700Z,39.70
2018-07-09T10:43:34.808Z,39.40
2018-07-09T10:48:30.840Z,39.50
2018-07-09T10:50:58.956Z,39.60
2018-07-09T10:53:27.070Z,39.80
2018-07-09T10:55:55.185Z,39.80
2018-07-09T10:58:23.360Z,39.90
2018-07-09T11:00:51.567Z,39.90
2018-07-09T11:03:19.593Z,39.80
2018-07-09T11:08:15.968Z,39.30
2018-07-09T11:10:44.094Z,39.10
2018-07-09T11:13:12.216Z,39.10
2018-07-09T11:15:40.352Z,38.60
2018-07-09T11:18:08.475Z,38.90
2018-07-09T11:20:36.599Z,39.00
2018-07-09T11:23:04.763Z,38.80
2018-07-09T11:25:32.878Z,38.50
2018-07-09T11:28:00.991Z,38.30
2018-07-09T11:30:29.096Z,38.40
2018-07-09T11:32:57.534Z,38.40
2018-07-09T11:35:25.644Z,38.40
2018-07-09T11:37:53.744Z,38.70
2018-07-09T11:40:21.886Z,38.50
2018-07-09T11:42:50.005Z,38.30
2018-07-09T11:45:18.135Z,37.90
2018-07-09T11:47:46.255Z,37.90
2018-07-09T11:50:14.392Z,38.00
2018-07-09T11:52:42.515Z,38.00
2018-07-09T11:55:10.626Z,38.00
2018-07-09T11:57:38.712Z,38.00
2018-07-09T12:00:06.812Z,37.50
2018-07-09T12:02:34.919Z,37.00
2018-07-09T12:05:03.010Z,36.40
2018-07-09T12:07:31.079Z,36.20
2018-07-09T12:09:59.171Z,37.00
2018-07-09T12:12:27.263Z,36.40
2018-07-09T12:14:55.367Z,36.40
2018-07-09T12:17:23.451Z,36.30
2018-07-09T12:19:51.586Z,36.40
2018-07-09T12:22:19.695Z,36.60
2018-07-09T12:24:47.776Z,36.50
2018-07-09T12:27:15.848Z,36.30
2018-07-09T12:29:43.935Z,35.80
2018-07-09T12:34:39.939Z,34.80
2018-07-09T12:37:08.029Z,35.20
2018-07-09T12:39:36.156Z,35.30
2018-07-09T12:42:04.247Z,35.10
2018-07-09T12:44:32.363Z,35.20
2018-07-09T12:47:00.477Z,35.20
2018-07-09T12:49:28.720Z,34.90
2018-07-09T12:51:57.099Z,35.00
2018-07-09T12:54:25.388Z,35.00
2018-07-09T12:56:53.502Z,35.00
2018-07-09T12:59:21.586Z,35.20
2018-07-09T13:01:49.967Z,35.30
2018-07-09T13:04:18.034Z,35.30
2018-07-09T13:06:46.143Z,35.40
2018-07-09T13:09:14.287Z,35.30
2018-07-09T13:11:42.444Z,35.30
2018-07-09T13:14:10.743Z,35.30
2018-07-09T13:16:38.836Z,35.10
2018-07-09T13:19:06.923Z,35.00
2018-07-09T13:24:03.029Z,34.40
2018-07-09T13:26:31.138Z,33.70
2018-07-09T13:33:55.607Z,33.70
2018-07-09T13:36:23.715Z,33.90
2018-07-09T13:38:51.840Z,33.90
2018-07-09T13:41:19.971Z,34.10
2018-07-09T13:43:48.123Z,34.30
2018-07-09T13:46:16.241Z,34.70
2018-07-09T13:51:12.834Z,35.50
2018-07-09T13:53:40.917Z,35.80
2018-07-09T13:56:09.091Z,36.00
2018-07-09T13:58:37.627Z,36.30
2018-07-09T14:03:33.604Z,36.70
2018-07-09T14:06:01.724Z,36.90
2018-07-09T14:08:29.834Z,37.10
2018-07-09T14:10:57.936Z,37.40
2018-07-09T14:13:26.052Z,37.40
2018-07-09T14:18:22.180Z,37.50
2018-07-09T14:23:18.967Z,37.60
2018-07-09T14:25:47.075Z,37.60
2018-07-09T14:28:16.048Z,37.60
2018-07-09T14:30:45.347Z,37.80
2018-07-09T14:33:13.566Z,37.90
2018-07-09T14:35:41.671Z,38.00
2018-07-09T14:38:09.780Z,38.00
2018-07-09T14:40:37.882Z,38.30
2018-07-09T14:43:05.963Z,38.40
2018-07-09T14:45:34.087Z,38.60
2018-07-09T14:48:02.176Z,38.70
2018-07-09T14:50:30.259Z,38.80
2018-07-09T14:52:58.349Z,38.70
2018-07-09T14:55:27.551Z,38.60
2018-07-09T14:57:55.828Z,38.60
2018-07-09T15:00:23.922Z,38.30
2018-07-09T15:02:52.052Z,38.10
2018-07-09T15:05:20.165Z,37.70
2018-07-09T15:07:48.296Z,37.60
2018-07-09T15:10:16.404Z,37.20
2018-07-09T15:12:44.526Z,36.90
2018-07-09T15:15:12.640Z,36.70
2018-07-09T15:17:40.763Z,36.60
2018-07-09T15:20:10.704Z,36.40
2018-07-09T15:22:39.002Z,36.30
2018-07-09T15:25:10.561Z,36.20
2018-07-09T15:27:38.670Z,36.10
2018-07-09T15:30:06.800Z,36.00
2018-07-09T15:32:35.044Z,35.80
2018-07-09T15:35:03.412Z,35.80
2018-07-09T15:37:31.791Z,35.60
2018-07-09T15:40:00.088Z,35.60
2018-07-09T15:42:28.295Z,35.00
2018-07-09T15:44:56.418Z,34.80
2018-07-09T15:47:24.503Z,34.70
2018-07-09T15:49:52.716Z,34.30
2018-07-09T15:54:48.763Z,33.80
2018-07-09T15:57:16.900Z,33.70
2018-07-09T15:59:45.070Z,33.60
2018-07-09T16:02:13.191Z,33.60
2018-07-09T16:04:41.315Z,33.80
2018-07-09T16:07:09.407Z,33.90
2018-07-09T16:09:37.517Z,34.00
2018-07-09T16:12:05.664Z,34.10
2018-07-09T16:14:34.608Z,34.20
2018-07-09T16:17:07.462Z,34.40
2018-07-09T16:22:03.549Z,34.50
2018-07-09T16:24:31.646Z,34.50
2018-07-09T16:26:59.748Z,34.50
2018-07-09T16:29:27.867Z,34.80
2018-07-09T16:31:55.981Z,34.80
2018-07-09T16:34:24.481Z,35.00
2018-07-09T16:39:20.654Z,35.00
2018-07-09T16:41:48.756Z,34.90
2018-07-09T16:44:16.874Z,34.80
2018-07-09T16:46:45.126Z,34.80
2018-07-09T16:49:13.156Z,34.80
2018-07-09T16:51:41.239Z,34.70
2018-07-09T16:54:09.357Z,34.80
2018-07-09T16:59:05.372Z,34.80
2018-07-09T17:01:33.496Z,34.90
2018-07-09T17:04:01.894Z,35.00
2018-07-09T17:06:30.013Z,35.00
2018-07-09T17:08:58.144Z,35.20
2018-07-09T17:11:26.257Z,35.30
2018-07-09T17:13:54.427Z,35.30
2018-07-09T17:16:22.566Z,35.20
2018-07-09T17:18:50.692Z,35.80
2018-07-09T17:21:18.839Z,35.20
2018-07-09T17:23:46.978Z,35.10
2018-07-09T17:26:15.154Z,35.00
2018-07-09T17:28:43.244Z,35.10
2018-07-09T17:31:11.359Z,35.10
2018-07-09T17:36:07.385Z,35.10
2018-07-09T17:38:35.543Z,35.00
2018-07-09T17:41:03.679Z,35.10
2018-07-09T17:43:31.827Z,35.20
2018-07-09T17:46:00.007Z,35.30
2018-07-09T17:48:28.182Z,35.30
2018-07-09T17:50:56.355Z,35.30
2018-07-09T17:53:24.482Z,35.30
2018-07-09T17:55:52.656Z,35.30
2018-07-09T17:58:20.850Z,35.40
2018-07-09T18:03:18.963Z,35.50
2018-07-09T18:05:47.109Z,35.60
2018-07-09T18:08:15.261Z,35.90
2018-07-09T18:10:43.363Z,35.90
2018-07-09T18:15:39.463Z,36.00
2018-07-09T18:18:07.613Z,36.80
2018-07-09T18:20:35.823Z,36.60
2018-07-09T18:23:04.469Z,37.00
2018-07-09T18:25:32.598Z,37.30
2018-07-09T18:28:00.755Z,37.20
2018-07-09T18:30:30.089Z,37.30
2018-07-09T18:35:26.293Z,37.50
2018-07-09T18:37:54.570Z,37.70
2018-07-09T18:40:22.692Z,37.90
2018-07-09T18:45:18.718Z,38.10
2018-07-09T18:47:46.871Z,37.90
2018-07-09T18:50:15.160Z,37.90
2018-07-09T18:52:43.529Z,38.10
2018-07-09T18:55:11.744Z,38.10
2018-07-09T18:57:40.009Z,38.00
2018-07-09T19:02:36.264Z,38.10
2018-07-09T19:05:04.571Z,38.00
2018-07-09T19:07:33.346Z,38.20
2018-07-09T19:10:01.971Z,38.40
2018-07-09T19:15:01.647Z,38.70
2018-07-09T19:18:09.735Z,38.70
2018-07-09T19:21:18.188Z,38.60
2018-07-09T19:26:12.950Z,38.80
2018-07-09T19:28:40.176Z,38.80
2018-07-09T19:31:07.427Z,39.50
2018-07-09T19:33:34.615Z,38.90
2018-07-09T19:36:01.804Z,38.90
2018-07-09T19:38:29.027Z,38.90
2018-07-09T19:43:24.518Z,38.90
2018-07-09T19:45:51.950Z,39.00
2018-07-09T19:48:19.014Z,39.10
2018-07-09T19:50:46.679Z,39.20
2018-07-09T19:53:13.955Z,39.10
2018-07-09T19:55:41.933Z,39.10
2018-07-09T19:58:09.162Z,39.50
2018-07-09T20:00:37.016Z,39.50
2018-07-09T20:03:04.879Z,39.80
2018-07-09T20:05:32.079Z,39.50
2018-07-09T20:07:59.539Z,39.50
2018-07-09T20:10:32.178Z,39.50
2018-07-09T20:13:03.263Z,39.60
2018-07-09T20:15:36.244Z,39.60
2018-07-09T20:20:35.049Z,39.80
2018-07-09T20:25:30.159Z,39.90
2018-07-09T20:27:57.375Z,39.90
2018-07-09T20:30:24.575Z,39.80
2018-07-09T20:32:52.510Z,39.80
2018-07-09T20:35:19.744Z,39.90
2018-07-09T20:37:46.924Z,40.00
2018-07-09T20:40:14.127Z,39.90
2018-07-09T20:42:43.952Z,40.10
2018-07-09T20:45:11.892Z,40.10
2018-07-09T20:47:43.868Z,40.10
2018-07-09T20:50:12.623Z,40.30
2018-07-09T20:52:39.821Z,40.50
2018-07-09T20:55:07.270Z,40.40
2018-07-09T20:57:34.429Z,40.40
2018-07-09T21:00:01.614Z,40.20
2018-07-09T21:02:28.787Z,40.30
2018-07-09T21:04:55.964Z,40.50
2018-07-09T21:09:50.559Z,40.50
2018-07-09T21:12:17.745Z,40.50
2018-07-09T21:14:44.938Z,40.50
2018-07-09T21:17:12.105Z,40.60
2018-07-09T21:19:39.271Z,40.70
2018-07-09T21:24:33.883Z,40.60
2018-07-09T21:29:28.983Z,40.90
2018-07-09T21:31:56.159Z,40.90
2018-07-09T21:34:23.348Z,41.00
2018-07-09T21:36:50.521Z,41.00
2018-07-09T21:39:17.703Z,40.90
2018-07-09T21:41:44.873Z,40.90
2018-07-09T21:44:12.058Z,41.00
2018-07-09T21:46:39.263Z,40.90
2018-07-09T21:49:06.441Z,41.00
2018-07-09T21:51:33.615Z,41.20
2018-07-09T21:54:00.818Z,41.20
2018-07-09T21:56:28.078Z,41.30
2018-07-09T21:58:55.183Z,41.30
2018-07-09T22:01:22.368Z,41.30
2018-07-09T22:03:49.548Z,41.30
2018-07-09T22:06:16.732Z,41.30
2018-07-09T22:08:43.904Z,41.30
2018-07-09T22:11:11.067Z,41.40
2018-07-09T22:16:05.696Z,41.60
2018-07-09T22:18:32.859Z,41.60
2018-07-09T22:21:00.046Z,41.70
2018-07-09T22:23:27.211Z,41.80
2018-07-09T22:25:54.383Z,41.80
2018-07-09T22:30:49.888Z,42.00
2018-07-09T22:33:17.975Z,42.00
2018-07-09T22:35:46.071Z,42.00
2018-07-09T22:38:14.155Z,42.50
2018-07-09T22:40:42.244Z,41.90
2018-07-09T22:43:21.878Z,42.00
2018-07-09T22:45:49.966Z,42.00
2018-07-09T22:48:18.067Z,42.10
2018-07-09T22:50:46.208Z,42.30
2018-07-09T22:53:14.301Z,42.20
2018-07-09T22:55:53.899Z,42.20
2018-07-09T22:58:22.038Z,42.30
2018-07-09T23:00:50.186Z,42.30
2018-07-09T23:03:18.336Z,42.30
2018-07-09T23:05:48.445Z,42.40
2018-07-09T23:08:16.588Z,42.30
2018-07-09T23:12:26.518Z,42.50
2018-07-09T23:17:08.854Z,42.40
2018-07-09T23:19:47.171Z,42.60
2018-07-09T23:22:15.720Z,42.90
2018-07-09T23:24:42.890Z,42.90
2018-07-09T23:27:10.065Z,42.90
2018-07-09T23:29:37.235Z,42.70
2018-07-09T23:32:04.430Z,42.60
2018-07-09T23:34:31.605Z,42.50
2018-07-09T23:36:58.782Z,42.40
2018-07-09T23:41:53.354Z,42.70
2018-07-09T23:44:20.531Z,42.80
2018-07-09T23:46:47.715Z,42.90
2018-07-09T23:49:14.876Z,42.80
2018-07-09T23:51:42.068Z,42.60
2018-07-09T23:54:09.232Z,42.70
2018-07-09T23:57:00.942Z,42.60
2018-07-09T23:59:40.699Z,42.70
